createdAt,value
2022-10-04T00:03:44.011Z,91.88
2022-10-04T00:09:09.612Z,91.90
2022-10-04T00:14:35.808Z,91.95
2022-10-04T00:19:50.265Z,91.98
2022-10-04T00:25:10.065Z,92.02
2022-10-04T00:30:19.745Z,92.08
2022-10-04T00:35:27.468Z,92.14
2022-10-04T00:40:34.131Z,92.15
2022-10-04T00:45:47.553Z,92.19
2022-10-04T00:51:04.156Z,92.14
2022-10-04T00:56:11.287Z,92.08
2022-10-04T01:01:13.131Z,92.06
2022-10-04T01:06:15.904Z,92.05
2022-10-04T01:11:41.518Z,92.02
2022-10-04T01:16:43.585Z,91.92
2022-10-04T01:21:47.251Z,91.82
2022-10-04T01:26:49.978Z,91.76
2022-10-04T01:32:00.626Z,91.68
2022-10-04T01:37:02.537Z,91.59
2022-10-04T01:42:14.480Z,91.51
2022-10-04T01:47:27.016Z,91.50
2022-10-04T01:52:49.018Z,91.50
2022-10-04T01:57:58.340Z,91.50
2022-10-04T02:03:34.615Z,91.42
2022-10-04T02:08:41.388Z,91.37
2022-10-04T02:13:45.799Z,91.34
2022-10-04T02:18:49.841Z,91.32
2022-10-04T02:23:53.289Z,91.30
2022-10-04T02:28:55.280Z,91.35
2022-10-04T02:34:00.135Z,91.41
2022-10-04T02:39:04.769Z,91.42
2022-10-04T02:44:42.219Z,91.39
2022-10-04T02:49:52.759Z,91.35
2022-10-04T02:55:10.708Z,91.37
2022-10-04T03:00:13.210Z,91.34
2022-10-04T03:05:15.453Z,91.33
2022-10-04T03:10:17.410Z,91.34
2022-10-04T03:15:20.596Z,91.30
2022-10-04T03:20:22.759Z,91.33
2022-10-04T03:25:30.326Z,91.36
2022-10-04T03:30:32.450Z,91.38
2022-10-04T03:35:40.576Z,91.40
2022-10-04T03:40:51.555Z,91.36
2022-10-04T03:45:55.463Z,91.29
2022-10-04T03:50:58.777Z,91.13
2022-10-04T03:56:04.501Z,91.11
2022-10-04T04:01:25.897Z,91.02
2022-10-04T04:06:40.447Z,90.70
2022-10-04T04:11:44.418Z,90.24
2022-10-04T04:16:47.077Z,89.66
2022-10-04T04:21:50.175Z,89.15
2022-10-04T04:26:58.216Z,88.83
2022-10-04T04:32:16.806Z,88.75
2022-10-04T04:37:20.626Z,88.78
2022-10-04T04:42:31.867Z,88.83
2022-10-04T04:47:44.234Z,88.93
2022-10-04T04:52:55.698Z,89.03
2022-10-04T04:57:59.637Z,89.11
2022-10-04T05:03:25.542Z,89.22
2022-10-04T05:08:36.009Z,89.40
2022-10-04T05:14:09.103Z,89.58
2022-10-04T05:19:31.197Z,89.91
2022-10-04T05:24:40.905Z,90.07
2022-10-04T05:30:00.869Z,89.71
2022-10-04T05:35:02.825Z,88.85
2022-10-04T05:40:20.846Z,87.83
2022-10-04T05:45:30.895Z,87.21
2022-10-04T05:50:42.219Z,86.70
2022-10-04T05:56:19.834Z,86.78
2022-10-04T06:01:34.356Z,86.87
2022-10-04T06:07:03.026Z,86.63
2022-10-04T06:12:20.224Z,85.88
2022-10-04T06:18:04.419Z,85.96
2022-10-04T06:23:21.452Z,85.75
2022-10-04T06:28:42.987Z,85.91
2022-10-04T06:33:45.090Z,85.48
2022-10-04T06:39:04.447Z,85.35
2022-10-04T06:44:09.342Z,85.09
2022-10-04T06:49:39.095Z,84.58
2022-10-04T06:55:25.571Z,84.70
2022-10-04T07:00:31.083Z,84.62
2022-10-04T07:05:42.565Z,84.54
2022-10-04T07:10:53.313Z,84.27
2022-10-04T07:16:36.202Z,83.71
2022-10-04T07:22:05.760Z,81.88
2022-10-04T07:27:13.459Z,81.20
2022-10-04T07:32:24.727Z,80.66
2022-10-04T07:37:31.060Z,80.86
2022-10-04T07:42:45.093Z,79.86
2022-10-04T07:47:47.180Z,79.07
2022-10-04T07:53:05.907Z,78.00
2022-10-04T07:58:23.301Z,78.41
2022-10-04T08:03:39.397Z,78.20
2022-10-04T08:09:10.045Z,77.68
2022-10-04T08:14:33.795Z,77.61
2022-10-04T08:20:16.060Z,78.00
2022-10-04T08:25:33.431Z,78.09
2022-10-04T08:30:55.661Z,78.95
2022-10-04T08:36:12.135Z,78.57
2022-10-04T08:41:51.651Z,77.94
2022-10-04T08:47:21.847Z,75.58
2022-10-04T08:52:46.022Z,74.65
2022-10-04T08:58:05.390Z,75.18
2022-10-04T09:03:31.586Z,74.85
2022-10-04T09:08:56.659Z,73.91
2022-10-04T09:14:12.847Z,73.03
2022-10-04T09:19:40.633Z,71.29
2022-10-04T09:24:51.506Z,70.07
2022-10-04T09:30:19.763Z,69.01
2022-10-04T09:35:46.482Z,65.87
2022-10-04T09:41:03.858Z,65.87
2022-10-04T09:46:15.892Z,66.84
2022-10-04T09:51:45.348Z,67.00
2022-10-04T09:57:15.842Z,64.50
2022-10-04T10:02:44.814Z,64.92
2022-10-04T10:08:02.363Z,60.83
2022-10-04T10:13:28.885Z,61.28
2022-10-04T10:19:07.267Z,59.76
2022-10-04T10:24:46.847Z,61.94
2022-10-04T10:29:59.423Z,63.99
2022-10-04T10:35:24.378Z,63.77
2022-10-04T10:40:41.019Z,63.44
2022-10-04T10:46:01.373Z,63.55
2022-10-04T10:51:23.434Z,62.96
2022-10-04T10:56:52.674Z,60.43
2022-10-04T11:01:57.979Z,61.07
2022-10-04T11:07:37.266Z,63.78
2022-10-04T11:12:41.956Z,65.37
2022-10-04T11:18:04.467Z,64.22
2022-10-04T11:23:46.001Z,61.74
2022-10-04T11:29:20.537Z,61.89
2022-10-04T11:34:38.223Z,60.52
2022-10-04T11:40:18.067Z,62.86
2022-10-04T11:45:33.378Z,60.43
2022-10-04T11:51:09.148Z,59.49
2022-10-04T11:56:29.864Z,59.29
2022-10-04T12:02:07.183Z,56.68
2022-10-04T12:07:42.096Z,56.36
2022-10-04T12:12:47.370Z,56.78
2022-10-04T12:18:07.675Z,57.03
2022-10-04T12:23:35.093Z,56.40
2022-10-04T12:29:25.826Z,55.05
2022-10-04T12:34:40.819Z,54.33
2022-10-04T12:40:10.341Z,53.76
2022-10-04T12:45:34.775Z,55.14
2022-10-04T12:51:04.727Z,55.03
2022-10-04T12:56:28.497Z,55.66
2022-10-04T13:01:55.448Z,54.76
2022-10-04T13:07:09.227Z,54.07
2022-10-04T13:12:24.548Z,51.88
2022-10-04T13:17:55.935Z,53.64
2022-10-04T13:23:02.208Z,53.37
2022-10-04T13:28:07.103Z,53.10
2022-10-04T13:33:36.176Z,52.77
2022-10-04T13:39:10.218Z,53.08
2022-10-04T13:44:26.457Z,53.19
2022-10-04T13:49:55.418Z,52.67
2022-10-04T13:55:45.030Z,52.92
2022-10-04T14:01:33.975Z,52.71
2022-10-04T14:07:15.585Z,54.41
2022-10-04T14:13:03.363Z,53.81
2022-10-04T14:18:47.441Z,54.37
2022-10-04T14:24:02.900Z,56.31
2022-10-04T14:29:30.557Z,56.79
2022-10-04T14:34:57.137Z,57.08
2022-10-04T14:40:11.064Z,59.00
2022-10-04T14:45:25.156Z,57.19
2022-10-04T14:50:44.339Z,58.54
2022-10-04T14:56:04.536Z,59.21
2022-10-04T15:01:27.108Z,59.26
2022-10-04T15:07:02.005Z,59.26
2022-10-04T15:12:40.773Z,59.43
2022-10-04T15:17:53.285Z,58.95
2022-10-04T15:23:16.050Z,59.61
2022-10-04T15:28:30.646Z,59.96
2022-10-04T15:33:39.827Z,60.86
2022-10-04T15:39:01.915Z,61.79
2022-10-04T15:44:14.741Z,62.27
2022-10-04T15:49:38.786Z,63.20
2022-10-04T15:55:06.392Z,63.75
2022-10-04T16:00:15.584Z,62.74
2022-10-04T16:05:44.556Z,62.63
2022-10-04T16:11:03.371Z,63.01
2022-10-04T16:16:17.759Z,63.27
2022-10-04T16:21:31.742Z,64.17
2022-10-04T16:26:34.024Z,65.79
2022-10-04T16:31:47.949Z,70.16
2022-10-04T16:37:24.228Z,71.78
2022-10-04T16:42:40.342Z,73.53
2022-10-04T16:47:48.201Z,74.48
2022-10-04T16:52:58.406Z,75.77
2022-10-04T16:58:28.550Z,75.59
2022-10-04T17:03:36.606Z,77.10
2022-10-04T17:09:00.507Z,77.47
2022-10-04T17:14:22.004Z,76.38
2022-10-04T17:19:51.702Z,76.58
2022-10-04T17:25:19.272Z,76.92
2022-10-04T17:30:27.437Z,77.72
2022-10-04T17:36:03.753Z,79.13
2022-10-04T17:41:14.416Z,79.66
2022-10-04T17:46:53.092Z,79.17
2022-10-04T17:52:15.726Z,79.08
2022-10-04T17:57:41.522Z,79.18
2022-10-04T18:03:04.057Z,80.53
2022-10-04T18:08:29.027Z,81.49
2022-10-04T18:13:39.615Z,82.25
2022-10-04T18:18:43.541Z,81.56
2022-10-04T18:24:01.379Z,82.30
2022-10-04T18:29:08.213Z,82.32
2022-10-04T18:34:28.000Z,82.24
2022-10-04T18:39:43.981Z,82.07
2022-10-04T18:45:00.464Z,81.90
2022-10-04T18:50:29.370Z,82.65
2022-10-04T18:55:52.943Z,83.42
2022-10-04T19:01:26.825Z,83.37
2022-10-04T19:06:36.657Z,82.54
2022-10-04T19:12:11.434Z,82.18
2022-10-04T19:17:37.275Z,81.89
2022-10-04T19:22:51.528Z,82.63
2022-10-04T19:28:13.646Z,82.82
2022-10-04T19:33:30.216Z,83.39
2022-10-04T19:38:41.355Z,84.00
2022-10-04T19:43:58.972Z,84.39
2022-10-04T19:49:02.315Z,83.87
2022-10-04T19:54:19.231Z,84.84
2022-10-04T19:59:35.947Z,85.62
2022-10-04T20:04:38.639Z,85.91
2022-10-04T20:09:48.050Z,86.11
2022-10-04T20:14:49.997Z,86.03
2022-10-04T20:19:51.830Z,86.06
2022-10-04T20:24:54.061Z,86.17
2022-10-04T20:30:04.137Z,86.32
2022-10-04T20:35:11.377Z,86.58
2022-10-04T20:40:22.043Z,86.50
2022-10-04T20:45:25.806Z,86.42
2022-10-04T20:50:46.431Z,86.33
2022-10-04T20:55:53.844Z,86.24
2022-10-04T21:00:59.581Z,86.49
2022-10-04T21:06:15.798Z,86.66
2022-10-04T21:11:21.395Z,86.65
2022-10-04T21:16:57.467Z,86.76
2022-10-04T21:22:03.039Z,87.03
2022-10-04T21:27:09.075Z,87.29
2022-10-04T21:32:10.835Z,87.36
2022-10-04T21:37:12.733Z,87.55
2022-10-04T21:42:14.737Z,87.61
2022-10-04T21:47:16.713Z,87.42
2022-10-04T21:52:18.937Z,87.25
2022-10-04T21:57:22.202Z,87.21
2022-10-04T22:02:24.102Z,87.44
2022-10-04T22:07:26.143Z,87.69
2022-10-04T22:12:30.111Z,87.72
2022-10-04T22:17:31.995Z,87.80
2022-10-04T22:22:37.566Z,87.99
2022-10-04T22:27:41.815Z,88.18
2022-10-04T22:32:46.431Z,88.19
2022-10-04T22:37:49.339Z,88.09
2022-10-04T22:42:54.245Z,88.17
2022-10-04T22:47:59.460Z,88.33
2022-10-04T22:53:22.252Z,88.50
2022-10-04T22:58:24.449Z,88.63
2022-10-04T23:03:31.962Z,88.69
2022-10-04T23:08:57.517Z,88.69
2022-10-04T23:14:05.879Z,88.73
2022-10-04T23:19:18.966Z,88.62
2022-10-04T23:24:23.094Z,88.53
2022-10-04T23:29:33.583Z,88.51
2022-10-04T23:34:37.980Z,88.29
2022-10-04T23:39:40.406Z,88.06
2022-10-04T23:44:42.580Z,87.90
2022-10-04T23:49:50.042Z,87.71
2022-10-04T23:54:54.429Z,87.70
2022-10-04T23:59:59.526Z,87.74
